Time;durP1;ratioP1;P1;durP2;ratioP2;P2;SDS_P1;SDS_P2;PMS_P1;PMS_P2;Temp;Humidity;BMP_temperature;BMP_pressure;BME280_temperature;BME280_humidity;BME280_pressure;Samples;Min_cycle;Max_cycle;Signal;HPM_P1;HPM_P2
2023/03/12 00:01:36;;;;;;;10.98;4.45;;;6.60;99.90;;;;;;5034569;28;20483;-81
2023/03/12 00:04:03;;;;;;;10.20;4.13;;;6.70;99.90;;;;;;5034869;28;20041;-81
2023/03/12 00:06:29;;;;;;;11.60;4.60;;;6.70;99.90;;;;;;5036406;28;20065;-79
2023/03/12 00:09:00;;;;;;;11.68;4.75;;;6.80;99.90;;;;;;5034909;28;20054;-78
2023/03/12 00:11:27;;;;;;;9.45;4.10;;;6.70;99.90;;;;;;5034783;28;20064;-81
2023/03/12 00:13:54;;;;;;;9.88;4.38;;;6.80;99.90;;;;;;5034589;28;20041;-81
2023/03/12 00:16:21;;;;;;;9.93;3.88;;;6.80;99.90;;;;;;5041153;28;20041;-81
2023/03/12 00:18:48;;;;;;;8.50;3.67;;;6.80;99.90;;;;;;5054382;28;20383;-79
2023/03/12 00:21:15;;;;;;;8.82;3.95;;;6.90;99.90;;;;;;5053757;28;20045;-79
2023/03/12 00:23:41;;;;;;;8.68;3.80;;;6.90;99.90;;;;;;5054152;28;20048;-78
2023/03/12 00:26:08;;;;;;;9.75;4.20;;;7.00;99.90;;;;;;5054324;28;20045;-81
2023/03/12 00:28:35;;;;;;;8.43;3.17;;;7.00;99.90;;;;;;5037102;28;20052;-80
2023/03/12 00:31:02;;;;;;;9.45;3.55;;;7.00;99.90;;;;;;5037846;28;20382;-82
2023/03/12 00:33:29;;;;;;;12.23;4.07;;;7.10;99.90;;;;;;5055003;28;20048;-81
2023/03/12 00:35:55;;;;;;;9.27;3.95;;;7.10;99.90;;;;;;5036952;28;20080;-82
2023/03/12 00:40:53;;;;;;;10.25;4.00;;;7.20;99.90;;;;;;5054612;28;20049;-80
2023/03/12 00:43:19;;;;;;;11.18;3.88;;;7.20;99.90;;;;;;5037302;28;20430;-82
2023/03/12 00:45:46;;;;;;;8.88;3.50;;;7.30;99.90;;;;;;5055125;28;20494;-81
2023/03/12 00:48:13;;;;;;;9.13;4.15;;;7.30;99.90;;;;;;5054652;28;20120;-79
2023/03/12 00:50:40;;;;;;;11.48;4.38;;;7.30;99.90;;;;;;5037950;28;20048;-81
2023/03/12 00:53:06;;;;;;;10.48;4.43;;;7.40;99.90;;;;;;5054035;28;20479;-81
2023/03/12 00:55:33;;;;;;;11.32;3.80;;;7.40;99.90;;;;;;5053189;28;20447;-81
2023/03/12 00:57:59;;;;;;;11.18;3.88;;;7.40;99.90;;;;;;5054854;28;20043;-82
2023/03/12 01:00:26;;;;;;;13.30;4.63;;;7.40;99.90;;;;;;5054063;28;20051;-78
2023/03/12 01:02:53;;;;;;;14.55;5.25;;;7.40;99.90;;;;;;5053349;28;20102;-80
2023/03/12 01:05:20;;;;;;;17.13;5.00;;;7.50;99.90;;;;;;5054652;28;20128;-81
2023/03/12 01:07:46;;;;;;;12.93;4.30;;;7.50;99.90;;;;;;5054027;28;20127;-82
2023/03/12 01:10:15;;;;;;;12.57;4.47;;;7.60;99.90;;;;;;5053744;28;20037;-81
2023/03/12 01:12:44;;;;;;;12.93;5.13;;;7.70;99.90;;;;;;5037421;28;20033;-80
2023/03/12 01:15:11;;;;;;;16.05;4.88;;;7.70;99.90;;;;;;5052842;28;20037;-79
2023/03/12 01:17:37;;;;;;;20.92;5.00;;;7.80;99.90;;;;;;5053668;28;20048;-81
2023/03/12 01:20:07;;;;;;;13.00;4.65;;;7.80;99.90;;;;;;5053838;28;20123;-81
2023/03/12 01:22:33;;;;;;;16.77;5.00;;;7.80;99.90;;;;;;5053160;28;20475;-82
2023/03/12 01:25:00;;;;;;;19.42;4.70;;;7.90;99.90;;;;;;5053389;28;20052;-83
2023/03/12 01:27:26;;;;;;;17.92;5.07;;;7.90;99.90;;;;;;5054717;28;20422;-82
2023/03/12 01:29:54;;;;;;;17.20;4.88;;;8.00;99.90;;;;;;5052892;28;20053;-81
2023/03/12 01:32:21;;;;;;;13.65;4.72;;;8.00;99.90;;;;;;5037005;28;20463;-82
2023/03/12 01:34:47;;;;;;;18.70;5.60;;;8.00;99.90;;;;;;5053096;28;20033;-81
2023/03/12 01:37:14;;;;;;;18.58;4.85;;;8.10;99.90;;;;;;5057578;28;20384;-82
2023/03/12 01:42:27;;;;;;;15.60;4.82;;;8.20;99.90;;;;;;5056935;28;20394;-80
2023/03/12 01:44:53;;;;;;;16.75;5.38;;;8.20;99.90;;;;;;5057256;28;20049;-79
2023/03/12 01:47:20;;;;;;;13.90;5.22;;;8.20;99.90;;;;;;5057621;28;20033;-80
2023/03/12 01:49:47;;;;;;;16.30;4.35;;;8.30;99.90;;;;;;5057615;28;20041;-80
2023/03/12 01:52:14;;;;;;;21.67;4.22;;;8.30;99.90;;;;;;5057776;28;20033;-81
2023/03/12 01:54:47;;;;;;;14.55;4.22;;;8.30;99.90;;;;;;5056598;28;20040;-80
2023/03/12 01:57:14;;;;;;;14.88;4.43;;;8.40;99.90;;;;;;5057607;28;20067;-81
2023/03/12 01:59:42;;;;;;;13.57;4.22;;;8.40;99.90;;;;;;5057407;28;20048;-80
2023/03/12 02:02:08;;;;;;;18.25;3.97;;;8.40;99.90;;;;;;5056709;28;20045;-81
2023/03/12 02:04:35;;;;;;;17.55;4.68;;;8.40;99.90;;;;;;5057591;28;20451;-80
2023/03/12 02:07:02;;;;;;;14.70;3.95;;;8.40;99.90;;;;;;5057628;28;20371;-80
2023/03/12 02:09:29;;;;;;;20.98;4.22;;;8.50;99.90;;;;;;5056518;28;20135;-80
2023/03/12 02:11:56;;;;;;;16.73;4.03;;;8.50;99.90;;;;;;5038454;28;20207;-82
2023/03/12 02:14:23;;;;;;;12.95;3.95;;;8.60;99.90;;;;;;5037431;28;20052;-81
2023/03/12 02:16:50;;;;;;;15.48;4.22;;;8.60;99.90;;;;;;5037099;28;20045;-79
2023/03/12 02:22:02;;;;;;;13.20;3.70;;;8.60;99.90;;;;;;5036357;28;20049;-79
2023/03/12 02:24:29;;;;;;;19.98;4.35;;;8.60;99.90;;;;;;5020608;28;20140;-82
2023/03/12 02:26:56;;;;;;;20.45;3.70;;;8.60;99.90;;;;;;5020386;28;20045;-82
2023/03/12 02:29:25;;;;;;;12.88;3.47;;;8.60;99.90;;;;;;5052684;28;20033;-83
2023/03/12 02:31:51;;;;;;;15.88;3.92;;;8.60;99.90;;;;;;5037192;28;20080;-79
2023/03/12 02:34:18;;;;;;;15.38;3.58;;;8.70;99.90;;;;;;5035934;28;20033;-80
2023/03/12 02:36:45;;;;;;;20.08;4.45;;;8.80;99.90;;;;;;5036476;28;20037;-83
2023/03/12 02:39:13;;;;;;;17.65;3.42;;;8.80;99.90;;;;;;5020357;28;20045;-80
2023/03/12 02:41:40;;;;;;;19.90;3.60;;;8.90;99.90;;;;;;5019566;28;20037;-80
2023/03/12 02:44:07;;;;;;;16.65;2.83;;;9.00;99.90;;;;;;5036606;28;20434;-82
2023/03/12 02:46:34;;;;;;;19.08;3.15;;;9.00;99.90;;;;;;5036091;28;20057;-80
2023/03/12 02:49:04;;;;;;;15.48;3.00;;;9.00;99.90;;;;;;5019528;28;20052;-82
2023/03/12 02:51:30;;;;;;;25.30;4.00;;;9.10;99.90;;;;;;5036396;28;20136;-81
2023/03/12 02:53:57;;;;;;;16.75;3.28;;;9.00;99.90;;;;;;5019752;28;20041;-80
2023/03/12 02:56:24;;;;;;;22.45;3.05;;;9.00;99.90;;;;;;5035735;28;20037;-82
2023/03/12 02:58:52;;;;;;;17.35;3.33;;;9.10;99.90;;;;;;5020490;28;20426;-81
2023/03/12 03:01:20;;;;;;;16.33;2.92;;;9.10;99.90;;;;;;5052327;28;20037;-79
2023/03/12 03:03:47;;;;;;;17.83;4.05;;;9.10;99.90;;;;;;5019833;28;20096;-80
2023/03/12 03:06:13;;;;;;;19.65;4.10;;;9.00;99.90;;;;;;5035961;28;20045;-82
2023/03/12 03:08:41;;;;;;;19.15;3.28;;;9.00;99.90;;;;;;5035476;28;20045;-82
2023/03/12 03:11:08;;;;;;;23.38;3.78;;;9.00;99.90;;;;;;5036350;28;20045;-80
2023/03/12 03:13:35;;;;;;;23.48;3.60;;;9.10;99.90;;;;;;5036226;28;20059;-79
2023/03/12 03:16:02;;;;;;;25.63;4.22;;;9.10;99.90;;;;;;5035057;28;20368;-81
2023/03/12 03:21:17;;;;;;;19.65;3.13;;;9.10;99.90;;;;;;5051953;28;20061;-80
2023/03/12 03:23:44;;;;;;;22.73;4.03;;;9.10;99.90;;;;;;5019525;28;20061;-79
2023/03/12 03:26:10;;;;;;;23.38;3.83;;;9.10;99.90;;;;;;5035945;28;20136;-81
2023/03/12 03:28:39;;;;;;;16.73;3.50;;;9.20;99.90;;;;;;5035194;28;20038;-83
2023/03/12 03:31:06;;;;;;;19.90;3.65;;;9.10;99.90;;;;;;5035816;28;20104;-80
2023/03/12 03:33:35;;;;;;;17.83;3.70;;;9.20;99.90;;;;;;5036235;28;20038;-79
2023/03/12 03:36:03;;;;;;;18.92;3.67;;;9.10;99.90;;;;;;5035251;28;20069;-79
2023/03/12 03:38:35;;;;;;;25.45;3.15;;;9.20;99.90;;;;;;5019816;28;20075;-79
2023/03/12 03:41:03;;;;;;;26.67;3.50;;;9.20;99.90;;;;;;5019256;28;20073;-79
2023/03/12 03:43:31;;;;;;;17.15;3.15;;;9.20;99.90;;;;;;5019901;28;20476;-82
2023/03/12 03:45:58;;;;;;;25.55;3.90;;;9.10;99.90;;;;;;5019370;28;20060;-82
2023/03/12 03:48:26;;;;;;;22.02;3.75;;;9.20;99.90;;;;;;5034835;28;20047;-79
2023/03/12 03:50:53;;;;;;;17.17;3.65;;;9.10;99.90;;;;;;5035638;28;20491;-79
2023/03/12 03:53:20;;;;;;;30.27;3.40;;;9.20;99.90;;;;;;5019131;28;20041;-82
2023/03/12 03:55:47;;;;;;;21.85;3.03;;;9.10;99.90;;;;;;5018122;28;20057;-79
2023/03/12 03:58:15;;;;;;;22.10;3.15;;;9.10;99.90;;;;;;5018860;28;20045;-80
2023/03/12 04:00:42;;;;;;;19.83;3.25;;;9.10;99.90;;;;;;5019197;28;20423;-80
2023/03/12 04:03:09;;;;;;;26.55;2.95;;;9.00;99.90;;;;;;5018260;28;20115;-79
2023/03/12 04:05:35;;;;;;;20.13;3.08;;;9.00;99.90;;;;;;5035293;28;20046;-80
2023/03/12 04:08:02;;;;;;;20.08;3.08;;;8.90;99.90;;;;;;5018100;28;20046;-81
2023/03/12 04:10:31;;;;;;;17.48;2.60;;;8.80;99.90;;;;;;5043375;28;20098;-81
2023/03/12 04:12:58;;;;;;;21.88;3.63;;;8.80;99.90;;;;;;5054964;28;20041;-80
2023/03/12 04:15:25;;;;;;;17.75;3.30;;;8.70;99.90;;;;;;5054075;28;20041;-82
2023/03/12 04:17:52;;;;;;;28.70;3.35;;;8.70;99.90;;;;;;5055159;28;20079;-81
2023/03/12 04:23:23;;;;;;;26.27;3.42;;;8.60;99.90;;;;;;5056160;28;20096;-81
2023/03/12 04:25:50;;;;;;;22.70;4.55;;;8.60;99.90;;;;;;5054471;28;20422;-81
2023/03/12 04:28:17;;;;;;;32.50;4.03;;;8.60;99.90;;;;;;5053648;28;20418;-81
2023/03/12 04:30:43;;;;;;;31.10;3.90;;;8.60;99.90;;;;;;5055032;28;20037;-81
2023/03/12 04:33:10;;;;;;;21.65;4.97;;;8.60;99.90;;;;;;5055206;28;20041;-82
2023/03/12 04:35:37;;;;;;;27.55;4.03;;;8.60;99.90;;;;;;5053680;28;20045;-81
2023/03/12 04:38:04;;;;;;;24.02;3.25;;;8.50;99.90;;;;;;5054265;28;20061;-81
2023/03/12 04:40:32;;;;;;;23.38;3.22;;;8.50;99.90;;;;;;5038034;28;20135;-79
2023/03/12 04:42:59;;;;;;;27.75;3.88;;;8.50;99.90;;;;;;5053907;28;20079;-82
2023/03/12 04:45:27;;;;;;;43.95;4.30;;;8.50;99.90;;;;;;5053943;28;20049;-82
2023/03/12 04:47:54;;;;;;;27.52;5.15;;;8.50;99.90;;;;;;5053594;28;20525;-81
2023/03/12 04:53:08;;;;;;;34.17;4.03;;;8.50;99.90;;;;;;5054220;28;20045;-80
2023/03/12 04:55:35;;;;;;;25.27;5.07;;;8.50;99.90;;;;;;5053004;28;20475;-79
2023/03/12 04:58:01;;;;;;;32.53;3.90;;;8.50;99.90;;;;;;5037806;28;20048;-79
2023/03/12 05:00:29;;;;;;;27.48;3.45;;;8.50;99.90;;;;;;5053696;28;20033;-81
2023/03/12 05:02:56;;;;;;;25.73;3.80;;;8.50;99.90;;;;;;5036849;28;20419;-81
2023/03/12 05:05:22;;;;;;;29.05;4.15;;;8.50;99.90;;;;;;5037311;28;20345;-82
2023/03/12 05:07:50;;;;;;;24.92;4.40;;;8.50;99.90;;;;;;5053078;28;20430;-78
2023/03/12 05:10:18;;;;;;;40.28;4.53;;;8.50;99.90;;;;;;5052853;28;20055;-81
2023/03/12 05:12:44;;;;;;;37.75;5.32;;;8.50;99.90;;;;;;5053751;28;20065;-80
2023/03/12 05:15:11;;;;;;;33.95;4.40;;;8.50;99.90;;;;;;5053678;28;20065;-82
2023/03/12 05:17:38;;;;;;;27.15;4.05;;;8.50;99.90;;;;;;5053854;28;20091;-81
2023/03/12 05:20:06;;;;;;;39.17;5.80;;;8.50;99.90;;;;;;5053646;28;20041;-82
2023/03/12 05:22:32;;;;;;;42.35;4.88;;;8.50;99.90;;;;;;5053001;28;20041;-81
2023/03/12 05:24:59;;;;;;;30.63;4.53;;;8.50;99.90;;;;;;5054281;28;20098;-80
2023/03/12 05:27:26;;;;;;;27.65;4.22;;;8.50;99.90;;;;;;5037018;28;20045;-79
2023/03/12 05:29:54;;;;;;;24.90;3.72;;;8.50;99.90;;;;;;5052933;28;20516;-80
2023/03/12 05:32:21;;;;;;;29.90;6.05;;;8.50;99.90;;;;;;5053772;28;20064;-77
2023/03/12 05:34:49;;;;;;;27.13;4.05;;;8.40;99.90;;;;;;5052269;28;20041;-80
2023/03/12 05:37:16;;;;;;;30.05;3.97;;;8.40;99.90;;;;;;5053580;28;20387;-79
2023/03/12 05:39:47;;;;;;;32.30;4.13;;;8.40;99.90;;;;;;5053997;28;20087;-80
2023/03/12 05:42:15;;;;;;;34.70;3.63;;;8.40;99.90;;;;;;5052767;28;20069;-82
2023/03/12 05:44:43;;;;;;;31.88;3.28;;;8.40;99.90;;;;;;5036987;28;20135;-81
2023/03/12 05:47:14;;;;;;;22.75;3.90;;;8.50;99.90;;;;;;5053770;28;20498;-82
2023/03/12 05:49:41;;;;;;;30.70;4.57;;;8.40;99.90;;;;;;5052669;28;20427;-81
2023/03/12 05:52:08;;;;;;;30.45;4.78;;;8.40;99.90;;;;;;5054064;28;20041;-81
2023/03/12 05:54:34;;;;;;;35.42;5.50;;;8.40;99.90;;;;;;5053074;28;20045;-79
2023/03/12 05:57:03;;;;;;;33.90;4.40;;;8.40;99.90;;;;;;5053315;28;20124;-82
2023/03/12 05:59:31;;;;;;;29.73;4.40;;;8.40;99.90;;;;;;5053592;28;20033;-82
2023/03/12 06:01:58;;;;;;;40.63;5.68;;;8.40;99.90;;;;;;5052802;28;20041;-81
2023/03/12 06:04:26;;;;;;;27.95;4.00;;;8.40;99.90;;;;;;5053496;28;20049;-82
2023/03/12 06:06:53;;;;;;;35.83;5.05;;;8.40;99.90;;;;;;5037325;28;20527;-82
2023/03/12 06:09:21;;;;;;;36.05;4.00;;;8.30;99.90;;;;;;5052515;28;20059;-80
2023/03/12 06:11:48;;;;;;;36.38;4.50;;;8.30;99.90;;;;;;5053135;28;20063;-82
2023/03/12 06:14:15;;;;;;;27.13;4.28;;;8.20;99.90;;;;;;5036370;28;20509;-80
2023/03/12 06:16:42;;;;;;;40.55;4.18;;;8.20;99.90;;;;;;5053663;28;20044;-81
2023/03/12 06:19:13;;;;;;;29.17;3.35;;;8.20;99.90;;;;;;5053059;28;20052;-80
2023/03/12 06:21:41;;;;;;;28.67;4.82;;;8.10;99.90;;;;;;5054128;28;20490;-78
2023/03/12 06:24:08;;;;;;;24.88;3.45;;;8.10;99.90;;;;;;5056831;28;20044;-79
2023/03/12 06:26:40;;;;;;;34.33;4.38;;;8.10;99.90;;;;;;5056736;28;20076;-79
2023/03/12 06:29:08;;;;;;;24.30;3.78;;;8.10;99.90;;;;;;5055758;28;20068;-82
2023/03/12 06:31:34;;;;;;;33.58;4.00;;;8.10;99.90;;;;;;5040009;28;20049;-83
2023/03/12 06:34:04;;;;;;;31.98;4.22;;;8.10;99.90;;;;;;5056812;28;20053;-80
2023/03/12 06:36:30;;;;;;;38.83;4.28;;;8.10;99.90;;;;;;5055499;28;20103;-79
2023/03/12 06:38:58;;;;;;;29.48;4.40;;;8.10;99.90;;;;;;5056521;28;20052;-79
2023/03/12 06:41:25;;;;;;;25.70;4.05;;;8.10;99.90;;;;;;5055980;28;20458;-80
2023/03/12 06:43:52;;;;;;;34.83;4.13;;;8.10;99.90;;;;;;5057482;28;20051;-79
2023/03/12 06:46:20;;;;;;;38.80;4.35;;;8.20;99.90;;;;;;5056073;28;20041;-80
2023/03/12 06:51:33;;;;;;;32.90;4.45;;;8.20;99.90;;;;;;5057469;28;20051;-80
2023/03/12 06:54:01;;;;;;;21.48;3.63;;;8.20;99.90;;;;;;5056556;28;20056;-79
2023/03/12 06:56:28;;;;;;;38.35;4.72;;;8.20;99.90;;;;;;5056667;28;20045;-81
2023/03/12 06:58:55;;;;;;;30.92;3.70;;;8.20;99.90;;;;;;5057461;28;20037;-80
2023/03/12 07:01:22;;;;;;;43.65;5.22;;;8.20;99.90;;;;;;5056370;28;20037;-77
2023/03/12 07:03:48;;;;;;;31.48;4.03;;;8.20;99.90;;;;;;5057251;28;20041;-80
2023/03/12 07:06:15;;;;;;;26.60;3.72;;;8.30;99.90;;;;;;5056033;28;20494;-80
2023/03/12 07:08:42;;;;;;;31.83;4.93;;;8.30;99.90;;;;;;5054925;28;20052;-81
2023/03/12 07:11:08;;;;;;;26.90;4.13;;;8.30;99.90;;;;;;5043752;28;20129;-81
2023/03/12 07:13:35;;;;;;;35.45;4.13;;;8.40;99.90;;;;;;5037455;28;20392;-80
2023/03/12 07:16:01;;;;;;;35.33;4.22;;;8.40;99.90;;;;;;5034926;28;20048;-81
2023/03/12 07:21:21;;;;;;;34.92;4.03;;;8.50;99.90;;;;;;5036165;28;20456;-80
2023/03/12 07:23:47;;;;;;;40.75;4.65;;;8.50;99.90;;;;;;5036882;28;20072;-82
2023/03/12 07:26:14;;;;;;;20.48;3.05;;;8.60;99.90;;;;;;5036402;28;20037;-79
2023/03/12 07:28:41;;;;;;;26.90;4.40;;;8.60;99.90;;;;;;5034982;28;20053;-81
2023/03/12 07:31:08;;;;;;;25.33;3.63;;;8.60;99.90;;;;;;5037083;28;20064;-79
2023/03/12 07:33:34;;;;;;;34.65;4.15;;;8.60;99.90;;;;;;5035545;28;20091;-82
2023/03/12 07:36:02;;;;;;;41.00;4.75;;;8.70;99.90;;;;;;5035340;28;20099;-82
2023/03/12 07:38:29;;;;;;;32.50;4.05;;;8.70;99.90;;;;;;5019014;28;20482;-79
2023/03/12 07:40:55;;;;;;;30.48;4.47;;;8.80;99.90;;;;;;5052154;28;20361;-81
2023/03/12 07:43:22;;;;;;;34.42;4.68;;;8.80;99.90;;;;;;5036272;28;20129;-81
2023/03/12 07:45:52;;;;;;;27.23;4.15;;;8.90;99.90;;;;;;5035058;28;20100;-79
2023/03/12 07:48:20;;;;;;;30.05;3.58;;;9.00;99.90;;;;;;5034830;28;20056;-79
2023/03/12 07:50:46;;;;;;;33.05;4.47;;;9.00;99.90;;;;;;5036924;28;20053;-78
2023/03/12 07:53:14;;;;;;;31.85;5.53;;;9.00;99.90;;;;;;5036106;28;20136;-81
2023/03/12 07:55:40;;;;;;;33.03;3.67;;;9.10;99.90;;;;;;5034989;28;20068;-81
2023/03/12 07:58:07;;;;;;;28.60;4.53;;;9.20;99.90;;;;;;5034995;28;20115;-79
2023/03/12 08:00:34;;;;;;;38.25;4.15;;;9.30;99.90;;;;;;5035962;28;20041;-79
2023/03/12 08:03:01;;;;;;;26.05;3.20;;;9.40;99.90;;;;;;5034364;28;20103;-80
2023/03/12 08:05:28;;;;;;;31.20;3.70;;;9.40;99.90;;;;;;5035492;28;20049;-80
2023/03/12 08:07:55;;;;;;;28.80;3.85;;;9.50;99.90;;;;;;5018344;28;20056;-79
2023/03/12 08:10:23;;;;;;;33.42;4.60;;;9.60;99.90;;;;;;5018614;28;20042;-79
2023/03/12 08:12:50;;;;;;;40.13;4.63;;;9.70;99.90;;;;;;5036143;28;20491;-81
2023/03/12 08:15:17;;;;;;;37.70;4.57;;;9.80;99.90;;;;;;5034616;28;20550;-80
2023/03/12 08:17:44;;;;;;;35.88;4.15;;;9.90;99.90;;;;;;5039694;28;20076;-79
2023/03/12 08:20:13;;;;;;;28.75;4.70;;;9.90;99.90;;;;;;5035330;28;20087;-82
2023/03/12 08:22:39;;;;;;;35.75;4.68;;;10.00;99.90;;;;;;5034902;28;20037;-80
2023/03/12 08:25:06;;;;;;;27.25;4.70;;;10.00;99.90;;;;;;5017917;28;20046;-80
2023/03/12 08:27:33;;;;;;;35.60;4.03;;;10.00;99.90;;;;;;5034930;28;20047;-82
2023/03/12 08:30:00;;;;;;;40.33;5.43;;;10.10;99.90;;;;;;5033575;28;20183;-81
2023/03/12 08:32:27;;;;;;;21.88;3.67;;;10.10;99.90;;;;;;5035080;28;20453;-81
2023/03/12 08:34:54;;;;;;;30.88;4.00;;;10.20;99.90;;;;;;5033249;28;20107;-78
2023/03/12 08:37:22;;;;;;;34.28;3.85;;;10.20;99.90;;;;;;5034287;28;20061;-80
2023/03/12 08:39:48;;;;;;;26.70;4.07;;;10.20;99.90;;;;;;5051845;28;20049;-79
2023/03/12 08:42:15;;;;;;;22.17;3.75;;;10.30;99.90;;;;;;5017968;28;20045;-79
2023/03/12 08:44:42;;;;;;;27.75;3.65;;;10.30;99.90;;;;;;5034254;28;20060;-80
2023/03/12 08:47:08;;;;;;;24.63;4.30;;;10.40;99.90;;;;;;5034384;28;20388;-80
2023/03/12 08:49:35;;;;;;;24.75;4.10;;;10.50;99.90;;;;;;5034612;28;20072;-80
2023/03/12 08:52:02;;;;;;;25.35;3.30;;;10.70;99.90;;;;;;5035317;28;20050;-78
2023/03/12 08:54:28;;;;;;;30.08;4.65;;;10.70;99.90;;;;;;5016643;28;20056;-79
2023/03/12 08:56:55;;;;;;;28.70;3.90;;;10.70;99.90;;;;;;5035155;28;20056;-80
2023/03/12 08:59:23;;;;;;;30.48;4.85;;;10.80;99.90;;;;;;5035440;28;20038;-78
2023/03/12 09:01:49;;;;;;;37.67;4.03;;;10.90;99.90;;;;;;5034263;28;20116;-78
2023/03/12 09:04:16;;;;;;;36.72;4.38;;;11.00;99.90;;;;;;5034909;28;20041;-81
2023/03/12 09:06:43;;;;;;;34.05;3.88;;;11.00;99.90;;;;;;5048353;28;20055;-79
2023/03/12 09:09:10;;;;;;;31.60;4.00;;;11.10;99.90;;;;;;5053407;28;20044;-77
2023/03/12 09:11:38;;;;;;;29.35;3.58;;;11.00;99.90;;;;;;5054770;28;20053;-78
2023/03/12 09:14:05;;;;;;;26.52;3.30;;;11.00;99.90;;;;;;5039109;28;20127;-80
2023/03/12 09:16:51;;;;;;;27.58;4.80;;;11.00;99.90;;;;;;5041673;28;20088;-78
2023/03/12 09:19:19;;;;;;;36.08;4.20;;;11.10;99.90;;;;;;5048484;28;20037;-81
2023/03/12 09:21:46;;;;;;;21.40;3.80;;;11.10;99.90;;;;;;5032760;28;20195;-79
2023/03/12 09:24:12;;;;;;;23.80;4.00;;;11.10;99.90;;;;;;5033517;28;20479;-80
2023/03/12 09:26:39;;;;;;;36.92;4.00;;;11.10;99.90;;;;;;5034287;28;20049;-78
2023/03/12 09:29:07;;;;;;;24.98;3.45;;;11.10;99.90;;;;;;5032514;28;20096;-81
2023/03/12 09:31:35;;;;;;;22.25;3.30;;;11.20;99.90;;;;;;5034555;28;20372;-82
2023/03/12 09:34:01;;;;;;;27.45;3.78;;;11.20;99.90;;;;;;5033396;28;20037;-82
2023/03/12 09:36:28;;;;;;;28.48;4.32;;;11.30;99.90;;;;;;5032144;28;20045;-81
2023/03/12 09:38:56;;;;;;;23.48;3.63;;;11.30;99.90;;;;;;5034367;28;20048;-78
2023/03/12 09:41:22;;;;;;;23.25;3.92;;;11.30;99.90;;;;;;5032969;28;20052;-79
2023/03/12 09:43:49;;;;;;;27.52;3.28;;;11.30;99.90;;;;;;5033216;28;20045;-78
2023/03/12 09:46:16;;;;;;;19.55;3.30;;;11.30;99.90;;;;;;5052312;28;20056;-77
2023/03/12 09:48:42;;;;;;;22.75;3.50;;;11.40;99.90;;;;;;5059041;28;20452;-78
2023/03/12 09:51:12;;;;;;;31.00;4.57;;;11.50;99.90;;;;;;5051193;28;20061;-79
2023/03/12 09:53:40;;;;;;;33.50;5.13;;;11.80;99.90;;;;;;5051659;28;20037;-77
2023/03/12 09:56:08;;;;;;;26.38;3.67;;;11.80;99.90;;;;;;5043748;28;20051;-79
2023/03/12 10:01:22;;;;;;;25.77;3.55;;;11.70;99.90;;;;;;5056635;28;20055;-78
2023/03/12 10:03:49;;;;;;;24.85;3.78;;;11.80;99.90;;;;;;5063781;28;20132;-78
2023/03/12 10:06:16;;;;;;;23.88;3.60;;;11.70;99.90;;;;;;5073690;28;20047;-80
2023/03/12 10:08:44;;;;;;;20.80;3.70;;;11.90;99.90;;;;;;5068599;28;20065;-82
2023/03/12 10:11:11;;;;;;;28.73;3.72;;;11.80;99.90;;;;;;5062456;28;20062;-80
2023/03/12 10:13:37;;;;;;;28.05;3.90;;;11.70;99.90;;;;;;5064226;28;20033;-81
2023/03/12 10:16:04;;;;;;;27.13;4.40;;;11.70;99.90;;;;;;5065742;28;20052;-79
2023/03/12 10:18:33;;;;;;;25.13;5.00;;;11.90;99.90;;;;;;5046593;28;20063;-82
2023/03/12 10:21:00;;;;;;;25.13;4.20;;;12.00;99.90;;;;;;5077091;28;20045;-81
2023/03/12 10:23:27;;;;;;;23.77;3.60;;;12.00;99.90;;;;;;5076936;28;20124;-79
2023/03/12 10:25:54;;;;;;;28.63;4.80;;;12.10;99.90;;;;;;5067241;28;20120;-81
2023/03/12 10:28:22;;;;;;;28.15;3.92;;;12.40;99.90;;;;;;5056664;28;20478;-80
2023/03/12 10:30:49;;;;;;;26.73;4.03;;;12.50;99.90;;;;;;5057740;28;20498;-82
2023/03/12 10:33:16;;;;;;;22.42;4.07;;;12.60;99.90;;;;;;5058086;28;20076;-80
2023/03/12 10:35:42;;;;;;;26.70;4.55;;;12.70;99.90;;;;;;5056581;28;20049;-79
2023/03/12 10:38:11;;;;;;;27.80;3.83;;;12.90;99.90;;;;;;5057756;28;20128;-80
2023/03/12 10:40:38;;;;;;;26.33;4.18;;;13.10;99.90;;;;;;5070337;28;20143;-79
2023/03/12 10:43:08;;;;;;;25.17;4.28;;;13.50;99.90;;;;;;5075737;28;20033;-79
2023/03/12 10:45:35;;;;;;;30.73;3.85;;;13.50;99.90;;;;;;5071535;28;20055;-81
2023/03/12 10:48:02;;;;;;;28.27;4.65;;;13.20;99.90;;;;;;5055745;28;20037;-80
2023/03/12 10:50:29;;;;;;;25.13;3.90;;;13.10;99.90;;;;;;5057267;28;20040;-81
2023/03/12 10:52:55;;;;;;;24.98;4.13;;;13.20;99.90;;;;;;5056468;28;20049;-82
2023/03/12 10:55:22;;;;;;;31.85;4.30;;;13.00;99.90;;;;;;5055063;28;20368;-81
2023/03/12 10:57:48;;;;;;;23.60;3.42;;;13.20;99.90;;;;;;5039347;28;20037;-80
2023/03/12 11:00:15;;;;;;;22.23;3.67;;;13.30;99.90;;;;;;5055914;28;20056;-80
2023/03/12 11:02:42;;;;;;;24.42;4.30;;;13.20;99.90;;;;;;5055121;28;20041;-79
2023/03/12 11:05:09;;;;;;;24.77;3.67;;;13.30;99.90;;;;;;5054754;28;20045;-80
2023/03/12 11:07:35;;;;;;;32.05;4.32;;;13.30;99.90;;;;;;5036586;28;20087;-79
2023/03/12 11:10:02;;;;;;;29.58;3.88;;;13.40;99.90;;;;;;5040921;28;20048;-79
2023/03/12 11:12:29;;;;;;;25.60;4.63;;;13.60;99.90;;;;;;5052172;28;20048;-78
2023/03/12 11:14:56;;;;;;;27.33;4.25;;;13.90;99.90;;;;;;5044184;28;20051;-79
2023/03/12 11:17:23;;;;;;;22.70;4.35;;;13.90;99.90;;;;;;5035467;28;20060;-80
2023/03/12 11:19:50;;;;;;;27.60;3.70;;;14.10;99.90;;;;;;5036667;28;20038;-80
2023/03/12 11:22:17;;;;;;;30.98;4.15;;;14.20;99.90;;;;;;5035926;28;20052;-80
2023/03/12 11:24:44;;;;;;;28.75;4.55;;;13.90;99.90;;;;;;5037160;28;20065;-80
2023/03/12 11:27:10;;;;;;;26.50;3.72;;;13.80;99.90;;;;;;5036742;28;20053;-80
2023/03/12 11:29:38;;;;;;;25.38;4.18;;;13.70;99.90;;;;;;5035861;28;20056;-79
2023/03/12 11:32:06;;;;;;;25.08;3.92;;;13.90;99.90;;;;;;5036329;28;20049;-81
2023/03/12 11:34:32;;;;;;;27.38;3.42;;;13.90;99.90;;;;;;5035788;28;20049;-79
2023/03/12 11:36:59;;;;;;;22.65;4.82;;;14.00;99.90;;;;;;5036154;28;20377;-80
2023/03/12 11:39:28;;;;;;;26.38;3.90;;;14.20;99.90;;;;;;5036382;28;20372;-80
2023/03/12 11:41:54;;;;;;;27.23;4.18;;;14.30;99.90;;;;;;5035652;28;20044;-82
2023/03/12 11:44:21;;;;;;;25.48;3.85;;;14.60;99.90;;;;;;5035997;28;20143;-83
2023/03/12 11:46:47;;;;;;;21.55;4.25;;;14.50;99.90;;;;;;5035971;28;20045;-82
2023/03/12 11:49:15;;;;;;;26.08;3.80;;;14.60;99.90;;;;;;5018123;28;20391;-80
2023/03/12 11:51:42;;;;;;;23.27;4.35;;;14.70;99.90;;;;;;5039408;28;20033;-83
2023/03/12 11:54:09;;;;;;;27.15;4.05;;;14.50;99.90;;;;;;5055397;28;20128;-81
2023/03/12 11:56:35;;;;;;;24.15;3.72;;;14.70;99.90;;;;;;5035523;28;20044;-83
2023/03/12 11:59:03;;;;;;;29.65;4.50;;;15.00;99.90;;;;;;5055549;28;20033;-81
2023/03/12 12:01:30;;;;;;;18.85;3.55;;;15.20;99.90;;;;;;5054196;28;20051;-80
2023/03/12 12:03:56;;;;;;;23.20;3.63;;;15.20;99.90;;;;;;5056186;28;20347;-80
2023/03/12 12:06:23;;;;;;;21.65;3.92;;;15.00;99.90;;;;;;5054852;28;20049;-81
2023/03/12 12:08:51;;;;;;;22.70;3.42;;;14.90;99.90;;;;;;5053852;28;20403;-80
2023/03/12 12:11:17;;;;;;;23.00;3.80;;;14.90;99.90;;;;;;5040397;28;20041;-81
2023/03/12 12:13:44;;;;;;;21.73;3.53;;;14.90;99.90;;;;;;5035899;28;20468;-79
2023/03/12 12:16:11;;;;;;;25.33;3.75;;;14.80;99.90;;;;;;5050508;28;20052;-78
2023/03/12 12:18:39;;;;;;;24.75;4.00;;;14.70;99.90;;;;;;5034441;28;20460;-81
2023/03/12 12:21:06;;;;;;;28.13;4.55;;;15.00;99.90;;;;;;5034710;28;20038;-79
2023/03/12 12:23:33;;;;;;;30.85;4.45;;;15.30;99.90;;;;;;5059352;28;20050;-81
2023/03/12 12:26:00;;;;;;;21.52;3.97;;;15.80;99.90;;;;;;5075625;28;20045;-81
2023/03/12 12:28:28;;;;;;;27.13;4.45;;;16.10;99.90;;;;;;5054971;28;20343;-79
2023/03/12 12:30:54;;;;;;;22.23;4.18;;;16.00;99.90;;;;;;5056600;28;20107;-84
2023/03/12 12:33:22;;;;;;;19.42;4.07;;;15.70;99.90;;;;;;5064689;28;20048;-81
2023/03/12 12:35:49;;;;;;;23.75;3.97;;;15.50;99.90;;;;;;5054275;28;20044;-81
2023/03/12 12:38:18;;;;;;;22.20;3.95;;;15.90;99.90;;;;;;5033753;28;20111;-81
2023/03/12 12:40:44;;;;;;;22.02;3.92;;;15.90;99.90;;;;;;5035028;28;20045;-79
2023/03/12 12:43:11;;;;;;;23.58;4.13;;;15.80;99.90;;;;;;5032725;28;20046;-82
2023/03/12 12:45:38;;;;;;;22.80;4.35;;;15.70;99.90;;;;;;5032882;28;20376;-82
2023/03/12 12:48:04;;;;;;;28.70;5.07;;;15.70;99.90;;;;;;5033374;28;20447;-82
2023/03/12 12:50:31;;;;;;;29.10;4.68;;;15.80;99.90;;;;;;5035034;28;20041;-80
2023/03/12 12:52:58;;;;;;;23.45;3.83;;;15.60;99.90;;;;;;5034898;28;20041;-81
2023/03/12 12:55:24;;;;;;;25.50;4.40;;;15.60;99.90;;;;;;5033307;28;20052;-82
2023/03/12 12:57:51;;;;;;;25.85;4.18;;;15.60;99.90;;;;;;5032823;28;20128;-79
2023/03/12 13:00:20;;;;;;;21.58;4.22;;;15.70;99.90;;;;;;5033892;28;20069;-79
2023/03/12 13:02:47;;;;;;;22.98;4.85;;;15.80;99.90;;;;;;5033582;28;20042;-82
2023/03/12 13:05:14;;;;;;;26.20;4.22;;;15.70;99.90;;;;;;5035199;28;20427;-81
2023/03/12 13:07:40;;;;;;;26.42;4.32;;;15.40;99.90;;;;;;5053417;28;20132;-80